createdAt,value
2023-03-10T00:01:35.980Z,10.52
2023-03-10T00:04:37.451Z,11.03
2023-03-10T00:07:39.706Z,10.68
2023-03-10T00:10:41.700Z,10.30
2023-03-10T00:13:43.587Z,9.70
2023-03-10T00:16:44.870Z,10.15
2023-03-10T00:19:46.268Z,10.07
2023-03-10T00:22:47.773Z,9.23
2023-03-10T00:25:55.136Z,9.43
2023-03-10T00:28:56.967Z,9.45
2023-03-10T00:31:58.314Z,8.95
2023-03-10T00:34:59.715Z,8.57
2023-03-10T00:38:01.969Z,8.38
2023-03-10T00:41:06.346Z,9.13
2023-03-10T00:44:09.045Z,9.75
2023-03-10T00:47:10.383Z,9.27
2023-03-10T00:50:11.801Z,8.70
2023-03-10T00:53:13.277Z,10.65
2023-03-10T00:56:17.892Z,9.43
2023-03-10T00:59:19.386Z,9.70
2023-03-10T01:02:21.217Z,10.40
2023-03-10T01:05:23.176Z,9.60
2023-03-10T01:08:24.591Z,9.95
2023-03-10T01:11:28.970Z,9.48
2023-03-10T01:14:31.359Z,9.40
2023-03-10T01:17:32.638Z,10.40
2023-03-10T01:20:34.831Z,9.27
2023-03-10T01:23:36.146Z,9.80
2023-03-10T01:26:38.454Z,10.68
2023-03-10T01:29:39.951Z,9.30
2023-03-10T01:32:41.360Z,9.85
2023-03-10T01:35:43.661Z,8.63
2023-03-10T01:38:45.546Z,9.02
2023-03-10T01:41:47.665Z,10.10
2023-03-10T01:45:05.097Z,8.75
2023-03-10T01:48:06.767Z,8.65
2023-03-10T01:51:08.434Z,8.87
2023-03-10T01:54:16.605Z,8.60
2023-03-10T01:57:23.231Z,8.90
2023-03-10T02:00:26.577Z,8.65
2023-03-10T02:03:32.356Z,8.85
2023-03-10T02:06:34.989Z,8.03
2023-03-10T02:09:40.554Z,8.30
2023-03-10T02:12:43.124Z,8.35
2023-03-10T02:15:45.896Z,7.78
2023-03-10T02:18:48.090Z,8.20
2023-03-10T02:21:57.402Z,7.97
2023-03-10T02:25:06.484Z,7.95
2023-03-10T02:28:08.915Z,8.55
2023-03-10T02:31:11.909Z,7.63
2023-03-10T02:34:13.600Z,7.45
2023-03-10T02:37:20.764Z,7.43
2023-03-10T02:40:31.568Z,7.50
2023-03-10T02:43:34.611Z,8.15
2023-03-10T02:46:36.400Z,7.97
2023-03-10T02:49:39.443Z,7.63
2023-03-10T02:52:46.758Z,6.77
2023-03-10T02:55:48.596Z,7.07
2023-03-10T02:58:50.790Z,8.23
2023-03-10T03:01:52.119Z,7.28
2023-03-10T03:04:53.560Z,7.95
2023-03-10T03:07:55.021Z,7.33
2023-03-10T03:10:56.354Z,7.38
2023-03-10T03:13:58.820Z,7.28
2023-03-10T03:17:00.348Z,6.80
2023-03-10T03:20:07.728Z,6.53
2023-03-10T03:23:09.944Z,6.37
2023-03-10T03:26:16.816Z,6.05
2023-03-10T03:29:19.011Z,6.53
2023-03-10T03:32:20.361Z,6.40
2023-03-10T03:35:24.430Z,6.60
2023-03-10T03:38:25.921Z,5.90
2023-03-10T03:41:27.414Z,5.85
2023-03-10T03:44:29.560Z,6.28
2023-03-10T03:47:30.891Z,6.05
2023-03-10T03:50:32.268Z,6.07
2023-03-10T03:53:33.866Z,5.23
2023-03-10T03:56:35.209Z,5.63
2023-03-10T03:59:37.255Z,6.00
2023-03-10T04:02:38.958Z,4.97
2023-03-10T04:05:40.478Z,5.68
2023-03-10T04:08:42.541Z,5.03
2023-03-10T04:11:44.068Z,5.70
2023-03-10T04:14:46.352Z,5.55
2023-03-10T04:17:47.679Z,5.50
2023-03-10T04:20:49.019Z,5.75
2023-03-10T04:23:50.375Z,5.33
2023-03-10T04:26:51.913Z,5.80
2023-03-10T04:29:54.181Z,5.47
2023-03-10T04:32:57.943Z,5.70
2023-03-10T04:36:03.755Z,5.75
2023-03-10T04:39:05.177Z,4.73
2023-03-10T04:42:07.208Z,5.22
2023-03-10T04:45:11.105Z,5.85
2023-03-10T04:48:12.498Z,5.85
2023-03-10T04:51:15.254Z,5.65
2023-03-10T04:54:16.589Z,5.50
2023-03-10T04:57:18.080Z,5.65
2023-03-10T05:00:20.458Z,5.90
2023-03-10T05:03:21.988Z,5.45
2023-03-10T05:06:23.446Z,5.45
2023-03-10T05:09:26.433Z,5.43
2023-03-10T05:12:28.596Z,5.05
2023-03-10T05:15:33.957Z,5.28
2023-03-10T05:18:35.268Z,5.40
2023-03-10T05:21:36.579Z,5.50
2023-03-10T05:24:37.973Z,5.67
2023-03-10T05:27:39.303Z,4.80
2023-03-10T05:30:41.666Z,5.07
2023-03-10T05:33:43.516Z,5.75
2023-03-10T05:36:44.935Z,6.13
2023-03-10T05:39:46.240Z,5.57
2023-03-10T05:42:48.754Z,5.32
2023-03-10T05:45:55.879Z,5.45
2023-03-10T05:48:57.336Z,5.70
2023-03-10T05:51:59.603Z,5.15
2023-03-10T05:55:00.960Z,4.50
2023-03-10T05:58:02.424Z,5.30
2023-03-10T06:01:05.171Z,5.38
2023-03-10T06:04:06.761Z,4.88
2023-03-10T06:07:08.256Z,4.95
2023-03-10T06:10:10.529Z,5.17
2023-03-10T06:13:12.346Z,5.15
2023-03-10T06:16:14.480Z,5.30
2023-03-10T06:19:15.950Z,5.05
2023-03-10T06:22:17.264Z,5.63
2023-03-10T06:25:19.156Z,5.73
2023-03-10T06:28:20.605Z,5.45
2023-03-10T06:31:24.203Z,5.85
2023-03-10T06:34:25.911Z,5.70
2023-03-10T06:37:27.666Z,5.78
2023-03-10T06:40:29.087Z,5.47
2023-03-10T06:43:31.249Z,5.60
2023-03-10T06:46:33.797Z,5.72
2023-03-10T06:49:35.158Z,5.50
2023-03-10T06:52:36.456Z,6.07
2023-03-10T06:55:37.929Z,5.47
2023-03-10T06:58:42.971Z,5.68
2023-03-10T07:01:45.592Z,5.65
2023-03-10T07:04:47.246Z,5.65
2023-03-10T07:07:49.866Z,4.95
2023-03-10T07:10:51.881Z,5.77
2023-03-10T07:13:54.290Z,5.50
2023-03-10T07:16:56.944Z,6.47
2023-03-10T07:19:58.421Z,5.90
2023-03-10T07:22:59.792Z,5.50
2023-03-10T07:26:01.160Z,6.20
2023-03-10T07:29:02.615Z,5.30
2023-03-10T07:32:05.360Z,5.88
2023-03-10T07:35:07.869Z,6.28
2023-03-10T07:38:09.528Z,5.13
2023-03-10T07:41:13.441Z,5.23
2023-03-10T07:44:14.786Z,5.60
2023-03-10T07:47:16.870Z,6.50
2023-03-10T07:50:19.448Z,5.65
2023-03-10T07:53:20.848Z,5.50
2023-03-10T07:56:22.378Z,4.80
2023-03-10T07:59:23.883Z,5.82
2023-03-10T08:02:26.714Z,5.65
2023-03-10T08:05:28.225Z,5.80
2023-03-10T08:08:29.586Z,5.55
2023-03-10T08:11:31.029Z,5.43
2023-03-10T08:14:32.340Z,6.38
2023-03-10T08:17:35.530Z,6.20
2023-03-10T08:20:37.032Z,5.20
2023-03-10T08:23:39.391Z,5.60
2023-03-10T08:26:41.150Z,5.77
2023-03-10T08:29:42.452Z,5.80
2023-03-10T08:32:44.768Z,5.75
2023-03-10T08:35:46.213Z,5.80
2023-03-10T08:38:48.876Z,6.28
2023-03-10T08:41:50.423Z,5.67
2023-03-10T08:44:54.426Z,4.70
2023-03-10T08:47:56.578Z,5.63
2023-03-10T08:50:58.169Z,6.18
2023-03-10T08:53:59.704Z,5.43
2023-03-10T08:57:01.356Z,5.60
2023-03-10T09:00:06.674Z,5.07
2023-03-10T09:03:10.457Z,5.85
2023-03-10T09:06:12.039Z,5.47
2023-03-10T09:09:13.452Z,5.75
2023-03-10T09:12:14.822Z,6.57
2023-03-10T09:15:16.448Z,6.28
2023-03-10T09:18:19.337Z,6.13
2023-03-10T09:21:20.773Z,6.38
2023-03-10T09:24:22.085Z,5.88
2023-03-10T09:27:23.769Z,6.30
2023-03-10T09:30:25.312Z,6.13
2023-03-10T09:33:27.342Z,6.30
2023-03-10T09:36:29.314Z,5.82
2023-03-10T09:39:31.217Z,6.50
2023-03-10T09:42:39.278Z,6.30
2023-03-10T09:45:47.213Z,6.53
2023-03-10T09:48:59.833Z,6.50
2023-03-10T09:52:16.685Z,5.88
2023-03-10T09:55:21.455Z,6.65
2023-03-10T09:58:31.422Z,6.27
2023-03-10T10:01:34.279Z,6.38
2023-03-10T10:04:39.028Z,6.20
2023-03-10T10:07:46.429Z,6.25
2023-03-10T10:10:51.699Z,6.50
2023-03-10T10:14:13.230Z,5.97
2023-03-10T10:17:25.943Z,7.65
2023-03-10T10:20:33.271Z,7.28
2023-03-10T10:23:40.042Z,7.15
2023-03-10T10:26:41.473Z,7.10
2023-03-10T10:29:46.264Z,7.00
2023-03-10T10:32:56.033Z,7.72
2023-03-10T10:36:02.656Z,7.65
2023-03-10T10:39:20.112Z,7.50
2023-03-10T10:42:23.944Z,7.07
2023-03-10T10:45:29.866Z,8.03
2023-03-10T10:48:39.651Z,7.32
2023-03-10T10:51:41.679Z,8.15
2023-03-10T10:54:43.974Z,6.93
2023-03-10T10:57:53.986Z,7.28
2023-03-10T11:00:58.532Z,7.40
2023-03-10T11:04:05.460Z,6.50
2023-03-10T11:07:16.599Z,6.85
2023-03-10T11:10:21.029Z,6.90
2023-03-10T11:13:28.712Z,7.22
2023-03-10T11:16:40.853Z,6.90
2023-03-10T11:19:55.655Z,11.02
2023-03-10T11:23:10.498Z,8.13
2023-03-10T11:26:20.198Z,7.38
2023-03-10T11:29:31.638Z,7.00
2023-03-10T11:32:42.380Z,6.23
2023-03-10T11:35:46.516Z,6.13
2023-03-10T11:38:51.167Z,6.65
2023-03-10T11:42:00.660Z,6.22
2023-03-10T11:45:19.092Z,6.28
2023-03-10T11:48:36.389Z,6.17
2023-03-10T11:51:43.878Z,6.85
2023-03-10T11:54:50.122Z,6.70
2023-03-10T11:57:57.966Z,5.53
2023-03-10T12:01:01.552Z,5.45
2023-03-10T12:04:13.824Z,5.87
2023-03-10T12:07:21.307Z,5.35
2023-03-10T12:10:24.896Z,6.03
2023-03-10T12:13:30.229Z,5.20
2023-03-10T12:16:35.985Z,5.78
2023-03-10T12:20:11.318Z,5.10
2023-03-10T12:23:39.663Z,5.75
2023-03-10T12:27:01.876Z,5.80
2023-03-10T12:30:45.226Z,3.95
2023-03-10T12:34:12.798Z,4.80
2023-03-10T12:37:22.381Z,4.73
2023-03-10T12:40:48.037Z,4.88
2023-03-10T12:43:56.105Z,5.03
2023-03-10T12:47:00.875Z,4.47
2023-03-10T12:50:15.943Z,5.60
2023-03-10T12:53:30.225Z,4.40
2023-03-10T12:56:38.576Z,4.63
2023-03-10T12:59:52.336Z,4.40
2023-03-10T13:02:59.588Z,5.32
2023-03-10T13:06:04.776Z,5.63
2023-03-10T13:09:10.686Z,7.77
2023-03-10T13:12:16.973Z,5.45
2023-03-10T13:15:27.614Z,5.05
2023-03-10T13:18:29.780Z,4.68
2023-03-10T13:21:33.236Z,5.22
2023-03-10T13:24:37.577Z,4.50
2023-03-10T13:27:39.050Z,6.18
2023-03-10T13:30:41.067Z,6.00
2023-03-10T13:33:52.700Z,6.35
2023-03-10T13:37:02.359Z,5.95
2023-03-10T13:40:09.516Z,5.67
2023-03-10T13:43:36.244Z,4.95
2023-03-10T13:46:39.094Z,5.88
2023-03-10T13:49:45.225Z,5.18
2023-03-10T13:52:57.257Z,5.05
2023-03-10T13:56:08.334Z,4.80
2023-03-10T13:59:14.603Z,5.03
2023-03-10T14:02:20.233Z,5.53
2023-03-10T14:05:44.958Z,5.00
2023-03-10T14:08:46.760Z,5.65
2023-03-10T14:11:49.878Z,5.17
2023-03-10T14:14:52.121Z,5.60
2023-03-10T14:18:17.336Z,5.15
2023-03-10T14:21:39.344Z,5.18
2023-03-10T14:24:45.307Z,5.55
2023-03-10T14:27:52.609Z,5.00
2023-03-10T14:30:54.774Z,6.15
2023-03-10T14:33:57.271Z,6.72
2023-03-10T14:36:58.762Z,6.32
2023-03-10T14:40:00.033Z,6.88
2023-03-10T14:43:02.309Z,6.47
2023-03-10T14:46:05.131Z,6.90
2023-03-10T14:49:14.172Z,6.95
2023-03-10T14:52:16.812Z,6.43
2023-03-10T14:55:18.393Z,6.72
2023-03-10T14:58:22.642Z,6.53
2023-03-10T15:01:24.074Z,6.50
2023-03-10T15:04:26.290Z,7.00
2023-03-10T15:07:28.471Z,6.43
2023-03-10T15:10:33.076Z,5.75
2023-03-10T15:13:36.453Z,6.13
2023-03-10T15:16:37.904Z,6.32
2023-03-10T15:19:39.804Z,6.07
2023-03-10T15:22:41.318Z,6.10
2023-03-10T15:25:45.635Z,6.57
2023-03-10T15:28:47.786Z,6.43
2023-03-10T15:31:49.269Z,6.93
2023-03-10T15:34:51.575Z,7.63
2023-03-10T15:37:52.990Z,6.05
2023-03-10T15:40:56.251Z,6.85
2023-03-10T15:43:57.908Z,6.40
2023-03-10T15:46:59.526Z,6.50
2023-03-10T15:50:01.661Z,5.95
2023-03-10T15:53:03.531Z,6.15
2023-03-10T15:56:06.424Z,5.70
2023-03-10T15:59:07.803Z,5.67
2023-03-10T16:02:10.269Z,5.00
2023-03-10T16:05:12.261Z,5.43
2023-03-10T16:08:14.294Z,5.10
2023-03-10T16:11:18.423Z,5.45
2023-03-10T16:14:19.991Z,5.07
2023-03-10T16:17:21.958Z,5.35
2023-03-10T16:20:24.241Z,4.03
2023-03-10T16:23:26.849Z,4.40
2023-03-10T16:26:28.674Z,5.15
2023-03-10T16:29:30.136Z,5.10
2023-03-10T16:32:31.493Z,4.70
2023-03-10T16:35:33.491Z,5.32
2023-03-10T16:38:35.618Z,4.68
2023-03-10T16:41:37.185Z,5.47
2023-03-10T16:44:38.682Z,5.30
2023-03-10T16:47:40.376Z,5.40
2023-03-10T16:50:42.334Z,5.82
2023-03-10T16:53:43.699Z,5.57
2023-03-10T16:56:46.920Z,5.70
2023-03-10T16:59:48.242Z,6.40
2023-03-10T17:02:50.075Z,6.22
2023-03-10T17:05:53.160Z,6.63
2023-03-10T17:08:54.898Z,5.63
2023-03-10T17:11:59.860Z,5.73
2023-03-10T17:15:01.480Z,6.03
2023-03-10T17:18:02.957Z,5.82
2023-03-10T17:21:14.970Z,6.25
2023-03-10T17:24:18.764Z,6.53
2023-03-10T17:27:20.272Z,7.30
2023-03-10T17:30:21.625Z,6.97
2023-03-10T17:33:22.896Z,6.88
2023-03-10T17:36:25.111Z,6.97
2023-03-10T17:39:27.167Z,6.43
2023-03-10T17:42:29.364Z,6.93
2023-03-10T17:45:30.718Z,6.77
2023-03-10T17:48:33.147Z,6.75
2023-03-10T17:51:35.111Z,6.50
2023-03-10T17:54:36.416Z,6.43
2023-03-10T17:57:39.746Z,6.57
2023-03-10T18:00:42.228Z,6.10
2023-03-10T18:03:46.349Z,6.22
2023-03-10T18:06:49.574Z,6.35
2023-03-10T18:09:50.875Z,6.20
2023-03-10T18:12:52.513Z,6.50
2023-03-10T18:15:53.976Z,6.43
2023-03-10T18:18:57.016Z,6.05
2023-03-10T18:22:00.176Z,5.65
2023-03-10T18:25:01.770Z,5.85
2023-03-10T18:28:03.234Z,5.73
2023-03-10T18:31:07.660Z,6.03
2023-03-10T18:34:09.818Z,6.00
2023-03-10T18:37:11.788Z,6.75
2023-03-10T18:40:15.799Z,6.15
2023-03-10T18:43:17.475Z,6.97
2023-03-10T18:46:18.955Z,6.70
2023-03-10T18:49:20.333Z,7.20
2023-03-10T18:52:22.461Z,6.50
2023-03-10T18:55:24.200Z,7.75
2023-03-10T18:58:25.912Z,7.20
2023-03-10T19:01:27.611Z,7.03
2023-03-10T19:04:28.945Z,6.75
2023-03-10T19:07:32.778Z,7.32
2023-03-10T19:10:34.226Z,7.57
2023-03-10T19:13:39.526Z,7.70
2023-03-10T19:16:42.014Z,7.00
2023-03-10T19:19:43.340Z,7.35
2023-03-10T19:22:49.800Z,7.03
2023-03-10T19:25:51.189Z,7.50
2023-03-10T19:28:53.127Z,7.60
2023-03-10T19:31:54.467Z,7.70
2023-03-10T19:34:55.822Z,8.33
2023-03-10T19:37:57.953Z,7.60
2023-03-10T19:40:59.961Z,7.63
2023-03-10T19:44:01.446Z,7.97
2023-03-10T19:47:02.854Z,7.55
2023-03-10T19:50:05.819Z,7.53
2023-03-10T19:53:07.863Z,7.40
2023-03-10T19:56:09.798Z,7.45
2023-03-10T19:59:14.183Z,7.32
2023-03-10T20:02:17.856Z,6.97
2023-03-10T20:05:19.327Z,7.40
2023-03-10T20:08:21.706Z,6.60
2023-03-10T20:11:23.484Z,7.05
2023-03-10T20:14:25.381Z,7.72
2023-03-10T20:17:27.921Z,6.32
2023-03-10T20:20:30.156Z,7.45
2023-03-10T20:23:33.181Z,7.90
2023-03-10T20:26:34.734Z,6.43
2023-03-10T20:29:36.113Z,8.05
2023-03-10T20:32:37.462Z,7.05
2023-03-10T20:35:39.087Z,7.95
2023-03-10T20:38:43.290Z,7.07
2023-03-10T20:41:45.225Z,7.05
2023-03-10T20:44:46.554Z,7.68
2023-03-10T20:47:48.502Z,6.60
2023-03-10T20:50:53.850Z,7.63
2023-03-10T20:53:56.285Z,7.07
2023-03-10T20:56:57.620Z,7.10
2023-03-10T20:59:59.013Z,7.20
2023-03-10T21:03:00.444Z,7.38
2023-03-10T21:06:01.854Z,7.85
2023-03-10T21:09:05.295Z,8.23
2023-03-10T21:12:06.729Z,7.75
2023-03-10T21:15:10.748Z,8.23
2023-03-10T21:18:12.268Z,7.43
2023-03-10T21:21:13.616Z,7.63
2023-03-10T21:24:15.673Z,7.03
2023-03-10T21:27:16.989Z,7.43
2023-03-10T21:30:19.612Z,8.00
2023-03-10T21:33:22.641Z,8.10
2023-03-10T21:36:24.484Z,6.88
2023-03-10T21:39:26.824Z,7.20
2023-03-10T21:42:28.204Z,7.13
2023-03-10T21:45:29.714Z,8.45
2023-03-10T21:48:31.028Z,7.88
2023-03-10T21:51:34.270Z,8.55
2023-03-10T21:54:36.534Z,8.47
2023-03-10T21:57:37.812Z,9.00
2023-03-10T22:00:39.556Z,8.93
2023-03-10T22:03:41.063Z,8.57
2023-03-10T22:06:42.481Z,8.30
2023-03-10T22:09:45.059Z,8.03
2023-03-10T22:12:47.230Z,8.02
2023-03-10T22:15:48.727Z,9.05
2023-03-10T22:18:50.071Z,9.57
2023-03-10T22:21:51.516Z,7.97
2023-03-10T22:24:53.673Z,8.17
2023-03-10T22:27:56.226Z,8.85
2023-03-10T22:30:57.712Z,8.77
2023-03-10T22:33:59.152Z,8.40
2023-03-10T22:37:00.616Z,8.27
2023-03-10T22:40:04.463Z,7.83
2023-03-10T22:43:05.745Z,7.70
2023-03-10T22:46:09.181Z,8.77
2023-03-10T22:49:11.088Z,8.43
2023-03-10T22:52:12.511Z,8.05
2023-03-10T22:55:15.931Z,8.00
2023-03-10T22:58:17.365Z,8.57
2023-03-10T23:01:19.029Z,8.32
2023-03-10T23:04:20.374Z,8.43
2023-03-10T23:07:21.775Z,7.82
2023-03-10T23:10:25.780Z,7.90
2023-03-10T23:13:27.240Z,8.25
2023-03-10T23:16:29.404Z,8.63
2023-03-10T23:19:30.749Z,8.50
2023-03-10T23:22:33.291Z,8.55
2023-03-10T23:25:37.489Z,7.93
2023-03-10T23:28:39.370Z,7.72
2023-03-10T23:31:40.917Z,7.85
2023-03-10T23:34:42.266Z,7.28
2023-03-10T23:37:43.870Z,7.80
2023-03-10T23:40:46.151Z,8.43
2023-03-10T23:43:48.086Z,7.67
2023-03-10T23:46:51.017Z,8.03
2023-03-10T23:49:52.617Z,8.27
2023-03-10T23:52:54.247Z,7.65
2023-03-10T23:55:58.017Z,7.90
2023-03-10T23:58:59.553Z,7.70
